Time;durP1;ratioP1;P1;durP2;ratioP2;P2;SDS_P1;SDS_P2;PMS_P1;PMS_P2;Temp;Humidity;BMP_temperature;BMP_pressure;BME280_temperature;BME280_humidity;BME280_pressure;Samples;Min_cycle;Max_cycle;Signal;HPM_P1;HPM_P2
2022/06/12 00:00:56;;;;;;;5.47;0.80;;;;;;;23.45;61.01;100425.66;2010973;29;20084;-74
2022/06/12 00:02:18;;;;;;;2.65;0.50;;;;;;;23.48;60.72;100427.38;2004742;29;20058;-75
2022/06/12 00:03:42;;;;;;;4.47;0.95;;;;;;;23.51;60.81;100424.56;2006885;29;20065;-74
2022/06/12 00:05:04;;;;;;;5.63;0.70;;;;;;;23.53;60.77;100425.38;2011973;29;20583;-74
2022/06/12 00:06:29;;;;;;;5.43;0.70;;;;;;;23.55;60.88;100429.75;2006969;29;20094;-74
2022/06/12 00:07:51;;;;;;;4.25;0.90;;;;;;;23.56;61.00;100427.94;1999709;29;20042;-74
2022/06/12 00:09:14;;;;;;;;;;;;;;;23.51;61.03;100430.81;2006658;29;20057;-74
2022/06/12 00:10:36;;;;;;;;;;;;;;;23.44;61.20;100427.47;1999612;29;19935;-75
2022/06/12 00:11:59;;;;;;;3.00;0.82;;;;;;;23.43;61.17;100422.19;1998993;29;19924;-74
2022/06/12 00:13:26;;;;;;;2.20;0.70;;;;;;;23.45;61.39;100418.44;2001221;29;20070;-75
2022/06/12 00:14:49;;;;;;;5.47;0.88;;;;;;;23.49;61.46;100419.25;2014318;29;20058;-74
2022/06/12 00:16:13;;;;;;;2.80;0.60;;;;;;;23.52;61.68;100419.09;2009565;29;20090;-75
2022/06/12 00:17:35;;;;;;;1.83;0.73;;;;;;;23.55;61.80;100413.59;2006585;29;20061;-74
2022/06/12 00:18:58;;;;;;;4.68;1.10;;;;;;;23.58;61.78;100416.13;2001789;29;20034;-74
2022/06/12 00:20:23;;;;;;;5.57;0.68;;;;;;;23.62;61.99;100415.09;1999367;29;20141;-74
2022/06/12 00:21:47;;;;;;;4.72;0.82;;;;;;;23.64;62.03;100415.88;2007517;29;20135;-75
2022/06/12 00:23:12;;;;;;;3.63;0.80;;;;;;;23.67;62.15;100412.19;2008244;29;20539;-75
2022/06/12 00:24:35;;;;;;;4.50;0.70;;;;;;;23.69;62.20;100411.19;2006048;29;20057;-75
2022/06/12 00:25:57;;;;;;;2.92;0.60;;;;;;;23.69;62.35;100410.28;2007174;29;20049;-74
2022/06/12 00:27:19;;;;;;;6.72;0.80;;;;;;;23.67;62.54;100410.34;2006304;29;20137;-75
2022/06/12 00:28:41;;;;;;;3.10;0.82;;;;;;;23.64;62.66;100412.28;2014572;29;20061;-75
2022/06/12 00:30:05;;;;;;;1.20;0.63;;;;;;;23.61;63.02;100416.03;2017009;29;20509;-74
2022/06/12 00:31:28;;;;;;;3.22;0.85;;;;;;;23.61;63.15;100409.75;2001376;29;20144;-75
2022/06/12 00:32:52;;;;;;;1.98;0.70;;;;;;;23.62;63.29;100416.91;2000751;29;20054;-75
2022/06/12 00:34:18;;;;;;;5.22;0.77;;;;;;;23.64;63.41;100417.69;2015055;29;20051;-74
2022/06/12 00:35:41;;;;;;;4.03;0.80;;;;;;;23.64;63.47;100410.47;2003730;29;20041;-75
2022/06/12 00:37:05;;;;;;;2.97;0.70;;;;;;;23.67;63.42;100402.28;2012957;29;20104;-74
2022/06/12 00:38:28;;;;;;;4.50;0.70;;;;;;;23.70;63.57;100406.63;2003763;29;20050;-74
2022/06/12 00:39:53;;;;;;;8.10;0.80;;;;;;;23.73;63.47;100406.50;2013670;29;20562;-74
2022/06/12 00:41:16;;;;;;;11.13;1.30;;;;;;;23.75;63.64;100405.50;2004835;29;20710;-75
2022/06/12 00:42:45;;;;;;;4.35;0.73;;;;;;;23.72;63.71;100405.63;2006618;29;20119;-75
2022/06/12 00:44:09;;;;;;;3.90;1.10;;;;;;;23.68;63.92;100398.63;2007285;29;20057;-75
2022/06/12 00:45:45;;;;;;;5.45;0.80;;;;;;;23.68;64.15;100408.53;2006397;29;20045;-75
2022/06/12 00:47:10;;;;;;;2.10;0.70;;;;;;;23.64;64.68;100402.38;2001015;29;20060;-75
2022/06/12 00:48:35;;;;;;;3.97;0.82;;;;;;;23.64;64.79;100406.91;2011967;29;20076;-74
2022/06/12 00:50:01;;;;;;;2.55;0.75;;;;;;;23.63;64.77;100400.63;2014519;29;20073;-75
2022/06/12 00:51:24;;;;;;;6.32;1.00;;;;;;;23.63;64.92;100395.25;2009310;29;20071;-75
2022/06/12 00:52:51;;;;;;;4.30;1.00;;;;;;;23.67;64.89;100393.31;2006636;29;20042;-75
2022/06/12 00:54:14;;;;;;;3.88;1.00;;;;;;;23.69;65.00;100397.69;2006262;29;20116;-74
2022/06/12 00:55:43;;;;;;;7.05;1.00;;;;;;;23.72;64.99;100393.97;2001645;29;20051;-75
2022/06/12 00:57:08;;;;;;;5.03;0.90;;;;;;;23.74;64.94;100397.47;2000077;29;20058;-74
2022/06/12 00:58:35;;;;;;;4.00;0.88;;;;;;;23.74;65.05;100392.09;2007152;29;20051;-75
2022/06/12 01:00:00;;;;;;;8.30;1.10;;;;;;;23.71;65.18;100394.91;2004705;29;20057;-75
2022/06/12 01:01:28;;;;;;;4.32;1.13;;;;;;;23.69;65.28;100395.00;2007155;29;20057;-75
2022/06/12 01:02:51;;;;;;;4.85;1.15;;;;;;;23.66;65.53;100389.72;2006911;29;20053;-75
2022/06/12 01:07:38;;;;;;;5.93;1.50;;;;;;;23.57;65.80;100389.25;2001329;29;20061;-74
2022/06/12 01:09:02;;;;;;;6.00;1.00;;;;;;;23.55;65.82;100380.38;2011956;29;20499;-74
2022/06/12 01:10:28;;;;;;;3.08;1.02;;;;;;;23.50;66.17;100377.84;2002676;29;20054;-75
2022/06/12 01:11:54;;;;;;;3.65;1.00;;;;;;;23.46;66.20;100384.31;2007141;29;20101;-74
2022/06/12 01:13:20;;;;;;;7.00;2.10;;;;;;;23.43;66.30;100376.38;2005791;29;20049;-74
2022/06/12 01:14:46;;;;;;;7.20;1.08;;;;;;;23.41;66.42;100378.25;2008218;29;20536;-75
2022/06/12 01:16:13;;;;;;;5.65;1.17;;;;;;;23.39;66.55;100382.81;1999499;29;20057;-75
2022/06/12 01:17:38;;;;;;;4.35;1.70;;;;;;;23.35;66.57;100390.16;1993153;29;20069;-75
2022/06/12 01:18:59;;;;;;;5.82;1.50;;;;;;;23.35;66.70;100390.16;2003637;29;20049;-75
2022/06/12 01:20:27;;;;;;;3.67;0.98;;;;;;;23.36;66.68;100385.66;1999522;29;20577;-75
2022/06/12 01:22:21;;;;;;;6.60;1.25;;;;;;;23.38;66.65;100384.63;2013779;29;20057;-74
2022/06/12 01:26:02;;;;;;;5.65;1.38;;;;;;;23.43;66.50;100379.06;2112322;27;20412;-73
2022/06/12 01:27:47;;;;;;;7.00;1.17;;;;;;;23.44;66.48;100378.97;2110392;28;20629;-73
2022/06/12 01:29:17;;;;;;;6.22;1.10;;;;;;;23.43;66.54;100388.00;2127918;27;20079;-73
2022/06/12 01:30:46;;;;;;;4.20;1.00;;;;;;;23.43;66.61;100384.44;2119189;28;20158;-73
2022/06/12 01:32:15;;;;;;;4.22;1.05;;;;;;;23.44;66.51;100381.66;2110350;28;20039;-73
2022/06/12 01:33:46;;;;;;;4.90;1.20;;;;;;;23.46;66.74;100381.59;2100130;28;20068;-72
2022/06/12 01:35:17;;;;;;;5.57;1.10;;;;;;;23.47;66.83;100382.47;2101578;28;20056;-72
2022/06/12 01:36:44;;;;;;;8.60;1.35;;;;;;;23.47;66.96;100388.78;2102762;28;20094;-73
2022/06/12 01:38:13;;;;;;;4.85;1.33;;;;;;;23.49;66.97;100392.31;2113756;28;20047;-73
2022/06/12 01:39:42;;;;;;;5.20;1.23;;;;;;;23.50;67.05;100391.34;2103188;28;20789;-73
2022/06/12 01:41:12;;;;;;;3.65;0.90;;;;;;;23.51;67.07;100385.00;2105092;28;20094;-73
2022/06/12 01:42:42;;;;;;;6.07;1.10;;;;;;;23.50;67.13;100391.34;2110407;28;20044;-73
2022/06/12 01:44:16;;;;;;;6.05;1.00;;;;;;;23.50;67.26;100387.78;2103507;28;20044;-73
2022/06/12 01:45:46;;;;;;;3.80;1.10;;;;;;;23.51;67.09;100390.41;2109299;28;20399;-73
2022/06/12 01:47:20;;;;;;;5.55;1.60;;;;;;;23.52;67.28;100389.47;2094481;28;20078;-72
2022/06/12 01:48:48;;;;;;;6.47;1.15;;;;;;;23.52;67.37;100388.56;2107598;28;20525;-73
2022/06/12 01:50:16;;;;;;;5.82;1.08;;;;;;;23.52;67.42;100391.28;2101667;28;20048;-73
2022/06/12 01:51:47;;;;;;;3.60;1.00;;;;;;;23.51;67.33;100384.13;2108406;28;20071;-73
2022/06/12 01:53:16;;;;;;;6.43;1.20;;;;;;;23.48;67.42;100385.16;2108383;28;20419;-73
2022/06/12 01:54:42;;;;;;;9.18;1.52;;;;;;;23.46;67.43;100387.00;2101749;28;20090;-72
2022/06/12 01:56:12;;;;;;;3.45;1.23;;;;;;;23.48;67.42;100390.53;2107458;28;20196;-73
2022/06/12 01:57:41;;;;;;;5.13;1.10;;;;;;;23.51;67.48;100389.50;2116714;28;20063;-73
2022/06/12 01:59:11;;;;;;;5.40;0.90;;;;;;;23.55;67.30;100385.75;2103419;28;20452;-73
2022/06/12 02:00:35;;;;;;;5.80;1.15;;;;;;;23.56;67.26;100384.81;2110116;28;20036;-72
2022/06/12 02:02:10;;;;;;;2.80;1.20;;;;;;;23.56;67.22;100383.00;2102479;28;20036;-73
2022/06/12 02:03:43;;;;;;;4.55;1.13;;;;;;;23.59;67.17;100380.16;2100118;28;20044;-73
2022/06/12 02:05:15;;;;;;;5.22;1.10;;;;;;;23.63;66.92;100381.75;2102042;28;20094;-72
2022/06/12 02:06:44;;;;;;;4.22;1.13;;;;;;;23.65;67.01;100379.88;2103824;28;20415;-73
2022/06/12 02:08:13;;;;;;;10.73;1.20;;;;;;;23.70;66.78;100380.56;2109492;28;20054;-73
2022/06/12 02:09:41;;;;;;;6.70;1.65;;;;;;;23.74;66.49;100386.69;2109927;28;20471;-73
2022/06/12 02:14:38;;;;;;;3.63;1.20;;;;;;;23.89;66.22;100377.94;2120371;28;20058;-72
2022/06/12 02:16:08;;;;;;;4.97;1.35;;;;;;;23.91;65.98;100380.53;2110438;28;20052;-73
2022/06/12 02:17:34;;;;;;;6.68;1.05;;;;;;;23.91;65.96;100381.41;2095794;28;20270;-73
2022/06/12 02:19:01;;;;;;;4.47;1.30;;;;;;;23.92;65.97;100372.38;2108967;28;20755;-73
2022/06/12 02:20:28;;;;;;;5.55;1.38;;;;;;;23.93;65.90;100373.25;2109268;28;20036;-73
2022/06/12 02:21:55;;;;;;;6.50;2.45;;;;;;;23.93;65.93;100378.66;2109504;28;20063;-72
2022/06/12 02:23:21;;;;;;;5.22;1.50;;;;;;;23.90;66.05;100376.09;2118108;28;20047;-72
2022/06/12 02:24:48;;;;;;;4.55;1.38;;;;;;;23.90;66.03;100384.16;2102851;28;20147;-72
2022/06/12 02:26:15;;;;;;;4.25;1.00;;;;;;;23.92;66.01;100382.28;2090701;28;20036;-72
2022/06/12 02:27:43;;;;;;;4.70;1.20;;;;;;;23.93;66.05;100387.63;2111161;28;20522;-73
2022/06/12 02:29:11;;;;;;;4.63;1.17;;;;;;;23.92;66.12;100393.06;2114709;28;20035;-73
2022/06/12 02:30:38;;;;;;;6.90;1.48;;;;;;;23.92;66.14;100391.25;2108187;28;20602;-73
2022/06/12 02:32:07;;;;;;;3.28;0.82;;;;;;;23.91;66.25;100389.50;2098081;28;20051;-72
2022/06/12 02:33:38;;;;;;;7.85;1.30;;;;;;;23.91;66.21;100386.81;2108775;28;20134;-73
2022/06/12 02:35:07;;;;;;;4.63;1.05;;;;;;;23.92;66.20;100391.25;2107671;28;20039;-72
2022/06/12 02:36:34;;;;;;;5.25;1.25;;;;;;;23.94;66.25;100391.19;2105542;28;20072;-72
2022/06/12 02:38:00;;;;;;;4.18;0.80;;;;;;;23.92;66.41;100383.16;2107789;28;20047;-73
2022/06/12 02:39:27;;;;;;;8.27;1.40;;;;;;;23.92;66.38;100391.25;2113234;28;20084;-73
2022/06/12 02:40:55;;;;;;;4.20;0.90;;;;;;;23.92;66.41;100385.00;2099559;28;20044;-73
2022/06/12 02:42:22;;;;;;;9.27;1.45;;;;;;;23.90;66.55;100389.56;2112575;28;20062;-72
2022/06/12 02:43:47;;;;;;;4.93;1.10;;;;;;;23.84;66.52;100386.22;2099306;28;20492;-73
2022/06/12 02:45:13;;;;;;;6.53;1.10;;;;;;;23.81;66.68;100386.38;2103099;28;20056;-73
2022/06/12 02:46:41;;;;;;;5.72;1.33;;;;;;;23.83;66.82;100387.16;2089357;28;20048;-73
2022/06/12 02:48:07;;;;;;;7.05;1.30;;;;;;;23.83;66.71;100383.56;2096196;28;20048;-73
2022/06/12 02:49:30;;;;;;;3.15;1.70;;;;;;;23.79;66.81;100379.28;2103666;28;20047;-73
2022/06/12 02:51:03;;;;;;;3.80;1.13;;;;;;;23.77;66.90;100381.16;2097483;28;20135;-73
2022/06/12 02:52:37;;;;;;;8.93;1.45;;;;;;;23.74;66.75;100379.50;2101868;28;20932;-73
2022/06/12 02:54:11;;;;;;;4.80;1.10;;;;;;;23.70;66.96;100374.28;2104806;28;20048;-73
2022/06/12 02:55:44;;;;;;;3.00;0.80;;;;;;;23.68;67.18;100377.06;2103648;28;20036;-73
2022/06/12 02:57:13;;;;;;;7.63;1.38;;;;;;;23.67;67.13;100375.31;2104555;28;20051;-73
2022/06/12 02:58:43;;;;;;;2.92;0.90;;;;;;;23.62;67.27;100374.66;2100779;28;21500;-73
2022/06/12 03:00:18;;;;;;;0.90;0.70;;;;;;;23.54;67.19;100375.91;2104005;28;20456;-73
2022/06/12 03:01:52;;;;;;;3.10;0.80;;;;;;;23.45;67.52;100377.16;2104678;28;20091;-72
2022/06/12 03:03:25;;;;;;;7.63;1.10;;;;;;;23.43;67.57;100376.38;2088318;28;20078;-72
2022/06/12 03:04:57;;;;;;;6.65;1.05;;;;;;;23.41;67.59;100372.84;2094928;28;20071;-72
2022/06/12 03:06:21;;;;;;;7.43;2.00;;;;;;;23.40;67.64;100379.19;2095640;28;20052;-72
2022/06/12 03:07:44;;;;;;;5.45;1.45;;;;;;;23.40;67.66;100373.78;2097221;28;20044;-73
2022/06/12 03:09:08;;;;;;;1.90;1.30;;;;;;;23.36;67.72;100370.38;2104042;28;20613;-73
2022/06/12 03:10:35;;;;;;;3.42;1.17;;;;;;;23.34;67.57;100377.63;2105581;28;20078;-73
2022/06/12 03:11:59;;;;;;;6.57;1.40;;;;;;;23.32;67.75;100379.50;2099903;28;20112;-73
2022/06/12 03:13:25;;;;;;;5.68;1.45;;;;;;;23.31;67.77;100379.56;2103077;28;20488;-73
2022/06/12 03:14:52;;;;;;;4.38;1.30;;;;;;;23.32;67.76;100379.50;2103535;28;20151;-73
2022/06/12 03:16:16;;;;;;;5.85;1.20;;;;;;;23.34;67.62;100379.44;2111850;28;20495;-73
2022/06/12 03:17:39;;;;;;;6.35;1.42;;;;;;;23.33;67.63;100380.38;2097498;28;20056;-72
2022/06/12 03:19:08;;;;;;;5.20;1.10;;;;;;;23.36;67.49;100377.56;2094666;28;20106;-72
2022/06/12 03:20:38;;;;;;;3.25;1.30;;;;;;;23.38;67.51;100375.66;2094913;28;20083;-73
2022/06/12 03:22:11;;;;;;;3.53;1.13;;;;;;;23.46;67.43;100384.31;2100124;28;20135;-73
2022/06/12 03:23:38;;;;;;;;;;;;;;;23.50;67.44;100385.09;2096337;28;20063;-73
2022/06/12 03:25:11;;;;;;;3.47;1.20;;;;;;;23.57;67.19;100392.81;2101365;28;20452;-73
2022/06/12 03:26:41;;;;;;;4.07;1.00;;;;;;;23.64;67.23;100390.72;2102974;28;20052;-74
2022/06/12 03:28:09;;;;;;;6.63;0.90;;;;;;;23.69;67.22;100395.00;2106064;28;20051;-73
2022/06/12 03:29:38;;;;;;;2.65;0.90;;;;;;;23.72;66.94;100397.53;2112752;28;20051;-73
2022/06/12 03:31:06;;;;;;;4.53;0.80;;;;;;;23.69;66.63;100383.34;2103968;28;20051;-73
2022/06/12 03:32:38;;;;;;;4.65;0.98;;;;;;;23.64;66.70;100391.59;2102500;28;20047;-73
2022/06/12 03:34:07;;;;;;;4.43;0.73;;;;;;;23.60;66.73;100386.44;2112521;28;20052;-73
2022/06/12 03:35:45;;;;;;;3.13;0.90;;;;;;;23.55;66.86;100383.94;2103211;28;20121;-73
2022/06/12 03:37:11;;;;;;;4.00;1.00;;;;;;;23.52;67.02;100384.06;2104913;28;20142;-73
2022/06/12 03:38:42;;;;;;;1.77;0.80;;;;;;;23.54;66.76;100382.19;2111843;28;20120;-73
2022/06/12 03:40:11;;;;;;;2.22;0.85;;;;;;;23.57;66.84;100387.44;2103528;28;20517;-73
2022/06/12 03:41:46;;;;;;;2.42;0.70;;;;;;;23.57;66.90;100386.53;2103440;28;20075;-73
2022/06/12 03:43:14;;;;;;;2.95;1.08;;;;;;;23.55;66.87;100385.75;2095014;28;20040;-72
2022/06/12 03:44:43;;;;;;;6.43;0.98;;;;;;;23.52;67.09;100391.28;2101559;28;20087;-73
2022/06/12 03:46:20;;;;;;;4.00;1.05;;;;;;;23.52;66.94;100389.47;2103091;28;20628;-73
2022/06/12 03:47:51;;;;;;;2.63;0.90;;;;;;;23.48;67.03;100381.59;2103096;28;20394;-73
2022/06/12 03:49:25;;;;;;;4.15;1.20;;;;;;;23.45;67.03;100388.81;2104034;28;20059;-74
2022/06/12 03:50:59;;;;;;;3.88;0.90;;;;;;;23.47;67.08;100390.56;2112704;28;20051;-73
2022/06/12 03:52:27;;;;;;;3.35;0.80;;;;;;;23.54;67.02;100389.41;2105252;28;20052;-73
2022/06/12 03:53:58;;;;;;;2.33;0.90;;;;;;;23.61;66.91;100396.28;2098919;28;20104;-73
2022/06/12 03:57:50;;;;;;;6.38;1.33;;;;;;;23.72;66.71;100388.56;2109033;28;20044;-73
2022/06/12 03:59:01;;;;;;;7.20;1.27;;;;;;;23.79;66.36;100392.75;2104937;28;20058;-73
2022/06/12 04:00:30;;;;;;;5.82;1.15;;;;;;;23.82;66.37;100395.31;2091103;28;20053;-73
2022/06/12 04:01:54;;;;;;;4.35;1.67;;;;;;;23.86;66.35;100401.44;2095347;28;20431;-72
2022/06/12 04:03:20;;;;;;;3.65;1.40;;;;;;;23.94;66.55;100401.97;2094539;28;20446;-73
2022/06/12 04:04:47;;;;;;;2.53;0.90;;;;;;;24.02;66.56;100402.53;2096790;28;20515;-73
2022/06/12 04:06:15;;;;;;;1.52;0.73;;;;;;;24.09;66.41;100399.44;2094681;28;20114;-72
2022/06/12 04:07:49;;;;;;;5.05;1.05;;;;;;;24.16;66.05;100405.44;2102013;28;20052;-72
2022/06/12 04:09:16;;;;;;;5.57;2.15;;;;;;;24.18;66.07;100400.84;2096514;28;20071;-73
2022/06/12 04:10:41;;;;;;;4.88;0.98;;;;;;;24.20;66.00;100407.09;2104249;28;20040;-72
2022/06/12 04:12:07;;;;;;;4.22;1.00;;;;;;;24.35;66.10;100410.91;2108880;28;20498;-73
2022/06/12 04:13:30;;;;;;;1.70;0.82;;;;;;;24.52;65.72;100410.97;2111572;28;20073;-72
2022/06/12 04:14:57;;;;;;;6.05;1.05;;;;;;;24.64;65.52;100407.69;2104065;28;20431;-72
2022/06/12 04:16:25;;;;;;;3.03;0.85;;;;;;;24.69;65.16;100407.47;2093440;28;20040;-72
2022/06/12 04:17:48;;;;;;;5.38;1.20;;;;;;;24.66;65.01;100408.50;2100097;28;20040;-73
2022/06/12 04:19:16;;;;;;;3.70;0.98;;;;;;;24.62;65.04;100413.16;2100767;28;20044;-73
2022/06/12 04:20:54;;;;;;;6.55;0.80;;;;;;;24.58;65.12;100413.38;2101707;28;20055;-72
2022/06/12 04:22:16;;;;;;;5.32;1.17;;;;;;;24.58;65.17;100413.38;2104312;28;20092;-72
2022/06/12 04:23:45;;;;;;;5.50;0.90;;;;;;;24.60;64.97;100415.06;2099643;28;20126;-73
2022/06/12 04:25:26;;;;;;;4.53;1.00;;;;;;;24.53;65.12;100413.63;2099428;28;20144;-72
2022/06/12 04:26:54;;;;;;;2.88;0.88;;;;;;;24.55;64.97;100421.63;2096105;28;20045;-72
2022/06/12 04:28:31;;;;;;;4.88;2.35;;;;;;;24.60;64.88;100420.47;2093084;28;20040;-73
2022/06/12 04:30:03;;;;;;;6.63;0.90;;;;;;;24.66;64.55;100423.81;2100213;28;20093;-73
2022/06/12 04:31:27;;;;;;;3.70;0.70;;;;;;;24.64;64.74;100421.19;2103374;28;20051;-73
2022/06/12 04:32:50;;;;;;;4.40;1.00;;;;;;;24.60;64.69;100406.09;2092211;28;20053;-72
2022/06/12 04:34:17;;;;;;;6.07;1.10;;;;;;;24.52;64.72;100421.78;2091225;28;20044;-72
2022/06/12 04:35:48;;;;;;;7.00;1.65;;;;;;;24.41;65.00;100418.72;2100665;28;20037;-73
2022/06/12 04:37:15;;;;;;;5.30;0.90;;;;;;;24.36;65.16;100418.91;2102961;28;20119;-73
2022/06/12 04:38:38;;;;;;;6.53;1.30;;;;;;;24.34;65.05;100414.56;2102787;28;20048;-73
2022/06/12 04:40:05;;;;;;;2.40;1.00;;;;;;;24.40;64.88;100425.94;2103787;28;20127;-72
2022/06/12 04:41:32;;;;;;;4.28;1.00;;;;;;;24.61;64.47;100421.34;2094290;28;20055;-73
2022/06/12 04:42:54;;;;;;;9.75;1.38;;;;;;;25.39;63.05;100415.69;2100746;28;20548;-73
2022/06/12 04:44:17;;;;;;;3.53;1.33;;;;;;;26.28;61.00;100420.03;2091434;28;20068;-73
2022/06/12 04:45:40;;;;;;;4.93;0.95;;;;;;;26.65;59.48;100425.16;2097457;28;20201;-73
2022/06/12 04:47:05;;;;;;;4.43;1.00;;;;;;;26.39;59.55;100423.03;2096420;28;20082;-73
2022/06/12 04:48:33;;;;;;;3.85;0.63;;;;;;;26.07;59.97;100427.44;2100134;28;20052;-73
2022/06/12 04:49:57;;;;;;;3.78;1.08;;;;;;;25.80;60.97;100425.25;2101272;28;20540;-73
2022/06/12 04:51:21;;;;;;;3.80;0.90;;;;;;;25.59;61.35;100422.81;2093575;28;20078;-73
2022/06/12 04:52:44;;;;;;;5.43;1.00;;;;;;;25.43;61.55;100428.09;2099776;28;20071;-72
2022/06/12 04:54:05;;;;;;;3.10;0.88;;;;;;;25.33;61.77;100427.72;2100155;28;20435;-73
2022/06/12 04:55:28;;;;;;;2.67;0.90;;;;;;;25.25;61.96;100429.03;2109017;28;20035;-72
2022/06/12 04:56:51;;;;;;;1.92;0.90;;;;;;;25.17;61.75;100431.25;2103347;28;20040;-73
2022/06/12 04:58:12;;;;;;;6.75;1.05;;;;;;;25.09;62.00;100433.44;2100287;28;20074;-73
2022/06/12 04:59:35;;;;;;;4.30;1.13;;;;;;;25.02;62.03;100438.25;2100928;28;20438;-73
2022/06/12 05:00:59;;;;;;;2.90;1.00;;;;;;;24.97;62.21;100437.63;2100855;28;20054;-73
2022/06/12 05:02:23;;;;;;;6.43;1.58;;;;;;;24.95;61.83;100445.78;2100291;28;20523;-72
2022/06/12 05:03:45;;;;;;;3.65;0.90;;;;;;;24.98;61.71;100442.09;2109942;28;20054;-72
2022/06/12 05:05:08;;;;;;;2.47;0.80;;;;;;;24.99;61.50;100442.00;2102174;28;20511;-72
2022/06/12 05:06:33;;;;;;;4.80;1.02;;;;;;;25.03;61.25;100453.53;2103831;28;20044;-73
2022/06/12 05:07:55;;;;;;;4.18;1.20;;;;;;;25.06;60.94;100453.41;2102264;28;20047;-73
2022/06/12 05:09:18;;;;;;;;;;;;;;;25.08;60.94;100453.28;2105023;28;20106;-73
2022/06/12 05:10:41;;;;;;;3.03;0.90;;;;;;;25.05;60.78;100457.03;2102197;28;19935;-73
2022/06/12 05:12:04;;;;;;;4.78;0.88;;;;;;;25.01;60.72;100455.41;2100364;28;20056;-73
2022/06/12 05:13:27;;;;;;;2.83;1.30;;;;;;;24.98;60.96;100464.56;2092264;28;20040;-73
2022/06/12 05:14:49;;;;;;;5.70;1.63;;;;;;;24.98;60.92;100461.88;2099286;28;20058;-73
2022/06/12 05:16:22;;;;;;;3.30;1.00;;;;;;;25.00;60.60;100457.28;2101033;28;20052;-73
2022/06/12 05:17:47;;;;;;;2.20;0.95;;;;;;;25.01;60.60;100456.28;2096077;28;20044;-73
2022/06/12 05:19:29;;;;;;;4.20;1.15;;;;;;;25.07;60.50;100460.56;2099759;28;20047;-73
2022/06/12 05:20:52;;;;;;;3.20;1.17;;;;;;;25.13;60.37;100465.66;2092678;28;20044;-73
2022/06/12 05:22:17;;;;;;;2.15;1.02;;;;;;;25.19;60.09;100468.06;2091070;28;20131;-72
2022/06/12 05:23:40;;;;;;;2.92;1.23;;;;;;;25.19;60.35;100465.34;2108191;28;20055;-73
2022/06/12 05:25:03;;;;;;;4.20;1.40;;;;;;;25.13;60.28;100453.97;2103421;28;20706;-73
2022/06/12 05:26:26;;;;;;;3.45;1.30;;;;;;;25.02;60.63;100459.88;2094387;28;20135;-73
2022/06/12 05:27:50;;;;;;;2.47;1.13;;;;;;;24.96;60.80;100465.59;2092063;28;20048;-73
2022/06/12 05:29:17;;;;;;;5.80;1.40;;;;;;;24.93;61.03;100465.75;2101258;28;20476;-73
2022/06/12 05:30:39;;;;;;;5.30;1.40;;;;;;;24.91;61.45;100459.53;2100754;28;20623;-72
2022/06/12 05:32:03;;;;;;;5.65;1.20;;;;;;;24.93;61.42;100460.34;2101961;28;20060;-73
2022/06/12 05:33:25;;;;;;;5.15;1.25;;;;;;;24.98;61.36;100461.88;2101348;28;20047;-73
2022/06/12 05:34:49;;;;;;;2.38;1.30;;;;;;;25.06;61.47;100458.78;2106958;28;20051;-73
2022/06/12 05:36:14;;;;;;;3.60;1.30;;;;;;;25.14;61.63;100459.28;2096310;28;20044;-73
2022/06/12 05:37:39;;;;;;;4.32;1.25;;;;;;;25.78;60.95;100456.94;2108762;28;20047;-73
2022/06/12 05:39:02;;;;;;;8.13;1.70;;;;;;;27.23;57.88;100463.41;2094568;28;20152;-73
2022/06/12 05:40:28;;;;;;;7.63;1.60;;;;;;;28.59;54.74;100455.13;2096930;28;20047;-73
2022/06/12 05:41:50;;;;;;;5.38;1.27;;;;;;;29.70;52.28;100463.13;2108307;28;20055;-73
2022/06/12 05:43:12;;;;;;;3.08;1.63;;;;;;;30.52;50.37;100461.09;2096301;28;20450;-73
2022/06/12 05:44:34;;;;;;;6.28;1.48;;;;;;;31.07;48.82;100455.22;2105820;28;20120;-73
2022/06/12 05:45:57;;;;;;;4.00;1.38;;;;;;;31.25;48.52;100457.44;2097608;28;20051;-72
2022/06/12 05:47:19;;;;;;;6.03;1.02;;;;;;;31.49;47.33;100471.09;2101985;28;20182;-73
2022/06/12 05:48:43;;;;;;;3.88;1.00;;;;;;;31.67;46.66;100466.97;2101725;28;20080;-73
2022/06/12 05:50:07;;;;;;;5.07;1.20;;;;;;;31.33;46.73;100464.16;2100316;28;20060;-73
2022/06/12 05:51:30;;;;;;;3.28;1.00;;;;;;;30.70;47.81;100471.53;2103452;28;20059;-74
2022/06/12 05:52:54;;;;;;;6.25;1.60;;;;;;;30.41;48.38;100468.13;2102259;28;20055;-73
2022/06/12 05:54:18;;;;;;;3.72;1.38;;;;;;;30.64;47.92;100463.81;2109921;28;20040;-74
2022/06/12 05:55:48;;;;;;;5.05;1.20;;;;;;;30.64;47.24;100463.81;2095876;28;20098;-73
2022/06/12 05:57:21;;;;;;;;;;;;;;;;;;;;;
2022/06/12 05:59:11;;;;;;;4.78;1.55;;;;;;;30.14;47.74;100466.50;2102652;28;20040;-74
2022/06/12 06:00:34;;;;;;;6.05;1.83;;;;;;;29.64;48.57;100458.13;2102083;28;20119;-74
2022/06/12 06:01:57;;;;;;;4.80;1.48;;;;;;;29.41;49.38;100463.34;2090820;28;20040;-74
2022/06/12 06:03:32;;;;;;;4.85;1.40;;;;;;;29.43;49.33;100470.44;2097410;28;20044;-74
2022/06/12 06:07:11;;;;;;;3.03;1.48;;;;;;;28.65;50.31;100469.22;2104146;28;20296;-73
2022/06/12 06:08:34;;;;;;;5.90;1.67;;;;;;;28.81;50.47;100469.13;2087615;28;20188;-74
2022/06/12 06:09:56;;;;;;;7.75;1.83;;;;;;;28.97;50.06;100469.00;2093103;28;20083;-73
2022/06/12 06:11:19;;;;;;;3.78;2.00;;;;;;;28.95;49.99;100469.09;2100445;28;20052;-73
2022/06/12 06:12:42;;;;;;;3.25;1.50;;;;;;;29.20;49.75;100471.97;2100697;28;20044;-73
2022/06/12 06:14:06;;;;;;;3.50;1.33;;;;;;;29.78;48.33;100469.91;2102646;28;20036;-73
2022/06/12 06:15:29;;;;;;;3.67;1.60;;;;;;;30.57;46.56;100465.22;2088483;28;20044;-74
2022/06/12 06:16:52;;;;;;;5.43;1.20;;;;;;;30.82;45.65;100478.81;2099929;28;20488;-73
2022/06/12 06:18:15;;;;;;;6.03;2.05;;;;;;;30.76;45.64;100470.22;2103152;28;20101;-73
2022/06/12 06:19:37;;;;;;;5.97;1.52;;;;;;;30.32;46.04;100474.25;2089913;28;20529;-73
2022/06/12 06:21:00;;;;;;;4.25;1.30;;;;;;;30.36;46.45;100466.72;2092321;28;20045;-74
2022/06/12 06:22:23;;;;;;;5.32;1.35;;;;;;;31.06;45.30;100469.81;2099263;28;20056;-73
2022/06/12 06:23:48;;;;;;;5.20;1.30;;;;;;;31.05;45.18;100473.56;2104323;28;20052;-74
2022/06/12 06:25:10;;;;;;;3.85;1.33;;;;;;;30.70;45.77;100473.38;2096809;28;20758;-74
2022/06/12 06:26:33;;;;;;;5.78;1.25;;;;;;;30.40;46.11;100473.69;2099784;28;20063;-74
2022/06/12 06:27:55;;;;;;;4.88;1.35;;;;;;;30.16;46.68;100478.16;2101106;28;20040;-74
2022/06/12 06:29:18;;;;;;;3.35;1.30;;;;;;;29.73;46.85;100474.78;2094837;28;20048;-73
2022/06/12 06:30:42;;;;;;;3.45;1.40;;;;;;;29.30;47.59;100474.94;2089712;28;20048;-74
2022/06/12 06:32:07;;;;;;;5.18;1.60;;;;;;;28.92;48.46;100480.19;2101781;28;20141;-73
2022/06/12 06:33:29;;;;;;;5.75;1.40;;;;;;;28.56;49.46;100477.94;2103761;28;20039;-74
2022/06/12 06:34:51;;;;;;;;;;;;;;;28.25;49.97;100487.13;2099150;28;20052;-73
2022/06/12 06:36:15;;;;;;;5.10;1.40;;;;;;;27.99;50.66;100485.13;2100428;28;19928;-73
2022/06/12 06:37:38;;;;;;;6.85;1.60;;;;;;;27.80;51.16;100487.19;2101970;28;20072;-74
2022/06/12 06:39:03;;;;;;;6.25;3.13;;;;;;;27.66;51.40;100490.72;2100662;28;20043;-73
2022/06/12 06:40:29;;;;;;;8.82;1.75;;;;;;;27.65;51.63;100494.41;2105327;28;20538;-73
2022/06/12 06:41:51;;;;;;;3.92;1.27;;;;;;;27.74;51.76;100493.88;2108268;28;20108;-73
2022/06/12 06:43:15;;;;;;;4.75;1.27;;;;;;;28.00;51.58;100482.31;2098822;28;20067;-73
2022/06/12 06:46:16;;;;;;;7.38;2.15;;;;;;;28.39;50.32;100492.59;2103590;28;20048;-73
2022/06/12 06:47:40;;;;;;;4.57;1.70;;;;;;;28.72;49.73;100483.28;2098281;28;20049;-74
2022/06/12 06:49:03;;;;;;;5.80;1.70;;;;;;;29.17;48.45;100488.47;2101392;28;20147;-74
2022/06/12 06:50:27;;;;;;;6.18;2.33;;;;;;;29.66;47.72;100496.13;2101892;28;20071;-73
2022/06/12 06:51:50;;;;;;;6.53;1.55;;;;;;;30.32;46.66;100496.06;2102248;28;20094;-74
2022/06/12 06:53:13;;;;;;;5.93;1.77;;;;;;;30.93;45.82;100501.69;2100764;28;20138;-76
2022/06/12 06:54:38;;;;;;;5.15;1.65;;;;;;;31.37;44.83;100509.34;2100674;28;20040;-74
2022/06/12 06:56:00;;;;;;;5.03;1.45;;;;;;;31.64;44.51;100507.28;2100083;28;20048;-74
2022/06/12 06:57:23;;;;;;;4.18;1.08;;;;;;;31.87;43.72;100511.00;2098297;28;20048;-74
2022/06/12 06:58:45;;;;;;;4.07;1.60;;;;;;;32.09;43.71;100513.81;2095991;28;20040;-74